sensor_id;sensor_type;location;lat;lon;timestamp;P1;durP1;ratioP1;P2;durP2;ratioP2
22922;SDS011;11627;51.322;22.816;2022-07-10T00:02:03;9.25;;;5.03;;
22922;SDS011;11627;51.322;22.816;2022-07-10T00:04:30;5.90;;;4.78;;
22922;SDS011;11627;51.322;22.816;2022-07-10T00:06:58;7.97;;;4.63;;
22922;SDS011;11627;51.322;22.816;2022-07-10T00:09:28;8.18;;;4.88;;
22922;SDS011;11627;51.322;22.816;2022-07-10T00:11:56;6.88;;;4.70;;
22922;SDS011;11627;51.322;22.816;2022-07-10T00:14:22;9.57;;;4.50;;
22922;SDS011;11627;51.322;22.816;2022-07-10T00:16:49;6.05;;;4.55;;
22922;SDS011;11627;51.322;22.816;2022-07-10T00:19:17;7.80;;;4.57;;
22922;SDS011;11627;51.322;22.816;2022-07-10T00:21:43;8.65;;;4.68;;
22922;SDS011;11627;51.322;22.816;2022-07-10T00:24:10;8.60;;;4.47;;
22922;SDS011;11627;51.322;22.816;2022-07-10T00:26:38;10.40;;;4.43;;
22922;SDS011;11627;51.322;22.816;2022-07-10T00:29:05;6.53;;;4.38;;
22922;SDS011;11627;51.322;22.816;2022-07-10T00:31:32;8.50;;;4.80;;
22922;SDS011;11627;51.322;22.816;2022-07-10T00:33:59;7.43;;;4.82;;
22922;SDS011;11627;51.322;22.816;2022-07-10T00:36:26;6.28;;;4.00;;
22922;SDS011;11627;51.322;22.816;2022-07-10T00:38:53;10.23;;;5.07;;
22922;SDS011;11627;51.322;22.816;2022-07-10T00:41:20;9.25;;;4.55;;
22922;SDS011;11627;51.322;22.816;2022-07-10T00:43:55;9.73;;;4.78;;
22922;SDS011;11627;51.322;22.816;2022-07-10T00:46:27;6.45;;;4.65;;
22922;SDS011;11627;51.322;22.816;2022-07-10T00:48:55;7.20;;;5.03;;
22922;SDS011;11627;51.322;22.816;2022-07-10T00:51:24;9.68;;;4.50;;
22922;SDS011;11627;51.322;22.816;2022-07-10T00:53:52;7.22;;;4.38;;
22922;SDS011;11627;51.322;22.816;2022-07-10T00:56:22;7.95;;;4.38;;
22922;SDS011;11627;51.322;22.816;2022-07-10T00:58:52;5.47;;;4.28;;
22922;SDS011;11627;51.322;22.816;2022-07-10T01:01:19;8.82;;;4.75;;
22922;SDS011;11627;51.322;22.816;2022-07-10T01:03:49;7.88;;;4.82;;
22922;SDS011;11627;51.322;22.816;2022-07-10T01:06:17;7.82;;;4.32;;
22922;SDS011;11627;51.322;22.816;2022-07-10T01:08:44;6.45;;;4.60;;
22922;SDS011;11627;51.322;22.816;2022-07-10T01:11:12;6.82;;;4.10;;
22922;SDS011;11627;51.322;22.816;2022-07-10T01:13:39;6.53;;;4.75;;
22922;SDS011;11627;51.322;22.816;2022-07-10T01:16:10;7.47;;;4.25;;
22922;SDS011;11627;51.322;22.816;2022-07-10T01:18:37;7.32;;;4.72;;
22922;SDS011;11627;51.322;22.816;2022-07-10T01:21:05;7.63;;;4.40;;
22922;SDS011;11627;51.322;22.816;2022-07-10T01:23:32;6.65;;;4.40;;
22922;SDS011;11627;51.322;22.816;2022-07-10T01:26:00;8.15;;;4.32;;
22922;SDS011;11627;51.322;22.816;2022-07-10T01:28:29;9.85;;;4.43;;
22922;SDS011;11627;51.322;22.816;2022-07-10T01:30:57;8.90;;;4.72;;
22922;SDS011;11627;51.322;22.816;2022-07-10T01:33:23;8.38;;;4.50;;
22922;SDS011;11627;51.322;22.816;2022-07-10T01:35:51;8.95;;;4.53;;
22922;SDS011;11627;51.322;22.816;2022-07-10T01:38:18;8.55;;;4.47;;
22922;SDS011;11627;51.322;22.816;2022-07-10T01:40:45;9.88;;;4.75;;
22922;SDS011;11627;51.322;22.816;2022-07-10T01:43:12;5.35;;;4.32;;
22922;SDS011;11627;51.322;22.816;2022-07-10T01:45:37;7.28;;;4.20;;
22922;SDS011;11627;51.322;22.816;2022-07-10T01:48:04;8.68;;;4.85;;
22922;SDS011;11627;51.322;22.816;2022-07-10T01:50:30;9.27;;;4.97;;
22922;SDS011;11627;51.322;22.816;2022-07-10T01:52:57;7.82;;;4.85;;
22922;SDS011;11627;51.322;22.816;2022-07-10T01:55:23;6.82;;;4.80;;
22922;SDS011;11627;51.322;22.816;2022-07-10T01:57:50;7.65;;;5.20;;
22922;SDS011;11627;51.322;22.816;2022-07-10T02:00:15;8.20;;;4.75;;
22922;SDS011;11627;51.322;22.816;2022-07-10T02:02:43;11.63;;;5.05;;
22922;SDS011;11627;51.322;22.816;2022-07-10T02:05:29;8.00;;;4.60;;
22922;SDS011;11627;51.322;22.816;2022-07-10T02:07:54;9.40;;;5.28;;
22922;SDS011;11627;51.322;22.816;2022-07-10T02:10:20;7.38;;;5.10;;
22922;SDS011;11627;51.322;22.816;2022-07-10T02:12:47;8.00;;;4.70;;
22922;SDS011;11627;51.322;22.816;2022-07-10T02:15:12;8.13;;;4.47;;
22922;SDS011;11627;51.322;22.816;2022-07-10T02:17:39;6.97;;;4.80;;
22922;SDS011;11627;51.322;22.816;2022-07-10T02:20:05;7.60;;;5.13;;
22922;SDS011;11627;51.322;22.816;2022-07-10T02:22:32;8.65;;;5.00;;
22922;SDS011;11627;51.322;22.816;2022-07-10T02:24:59;7.53;;;5.18;;
22922;SDS011;11627;51.322;22.816;2022-07-10T02:27:25;7.85;;;4.82;;
22922;SDS011;11627;51.322;22.816;2022-07-10T02:29:51;6.53;;;5.13;;
22922;SDS011;11627;51.322;22.816;2022-07-10T02:32:17;9.02;;;5.35;;
22922;SDS011;11627;51.322;22.816;2022-07-10T02:34:44;9.98;;;5.32;;
22922;SDS011;11627;51.322;22.816;2022-07-10T02:37:10;6.72;;;4.43;;
22922;SDS011;11627;51.322;22.816;2022-07-10T02:39:37;9.93;;;5.22;;
22922;SDS011;11627;51.322;22.816;2022-07-10T02:42:04;8.85;;;5.22;;
22922;SDS011;11627;51.322;22.816;2022-07-10T02:44:31;12.52;;;5.15;;
22922;SDS011;11627;51.322;22.816;2022-07-10T02:46:56;10.00;;;5.05;;
22922;SDS011;11627;51.322;22.816;2022-07-10T02:49:23;10.48;;;5.28;;
22922;SDS011;11627;51.322;22.816;2022-07-10T02:51:50;12.85;;;5.78;;
22922;SDS011;11627;51.322;22.816;2022-07-10T02:54:17;8.55;;;5.57;;
22922;SDS011;11627;51.322;22.816;2022-07-10T02:56:43;12.25;;;6.28;;
22922;SDS011;11627;51.322;22.816;2022-07-10T02:59:09;9.23;;;5.70;;
22922;SDS011;11627;51.322;22.816;2022-07-10T03:01:35;10.88;;;5.95;;
22922;SDS011;11627;51.322;22.816;2022-07-10T03:04:01;11.20;;;6.45;;
22922;SDS011;11627;51.322;22.816;2022-07-10T03:06:27;8.70;;;6.03;;
22922;SDS011;11627;51.322;22.816;2022-07-10T03:08:54;10.95;;;6.15;;
22922;SDS011;11627;51.322;22.816;2022-07-10T03:11:20;7.20;;;5.88;;
22922;SDS011;11627;51.322;22.816;2022-07-10T03:13:47;8.82;;;6.13;;
22922;SDS011;11627;51.322;22.816;2022-07-10T03:16:12;8.02;;;6.05;;
22922;SDS011;11627;51.322;22.816;2022-07-10T03:18:38;9.93;;;6.43;;
22922;SDS011;11627;51.322;22.816;2022-07-10T03:21:04;10.65;;;6.72;;
22922;SDS011;11627;51.322;22.816;2022-07-10T03:23:31;10.75;;;6.57;;
22922;SDS011;11627;51.322;22.816;2022-07-10T03:25:57;11.38;;;6.85;;
22922;SDS011;11627;51.322;22.816;2022-07-10T03:28:23;10.63;;;5.82;;
22922;SDS011;11627;51.322;22.816;2022-07-10T03:30:49;10.65;;;6.38;;
22922;SDS011;11627;51.322;22.816;2022-07-10T03:33:17;8.68;;;6.18;;
22922;SDS011;11627;51.322;22.816;2022-07-10T03:35:43;11.40;;;6.80;;
22922;SDS011;11627;51.322;22.816;2022-07-10T03:38:10;11.13;;;6.38;;
22922;SDS011;11627;51.322;22.816;2022-07-10T03:40:38;11.40;;;6.32;;
22922;SDS011;11627;51.322;22.816;2022-07-10T03:43:05;12.20;;;6.55;;
22922;SDS011;11627;51.322;22.816;2022-07-10T03:45:30;9.07;;;6.72;;
22922;SDS011;11627;51.322;22.816;2022-07-10T03:47:56;10.20;;;6.78;;
22922;SDS011;11627;51.322;22.816;2022-07-10T03:50:22;11.95;;;6.75;;
22922;SDS011;11627;51.322;22.816;2022-07-10T03:52:50;11.38;;;7.35;;
22922;SDS011;11627;51.322;22.816;2022-07-10T03:55:15;12.50;;;6.97;;
22922;SDS011;11627;51.322;22.816;2022-07-10T03:57:41;11.52;;;6.15;;
22922;SDS011;11627;51.322;22.816;2022-07-10T04:00:19;10.07;;;6.60;;
22922;SDS011;11627;51.322;22.816;2022-07-10T04:03:01;8.55;;;6.00;;
22922;SDS011;11627;51.322;22.816;2022-07-10T04:05:29;8.73;;;5.80;;
22922;SDS011;11627;51.322;22.816;2022-07-10T04:07:57;8.38;;;5.30;;
22922;SDS011;11627;51.322;22.816;2022-07-10T04:10:24;7.28;;;5.65;;
22922;SDS011;11627;51.322;22.816;2022-07-10T04:12:53;8.05;;;5.80;;
22922;SDS011;11627;51.322;22.816;2022-07-10T04:15:19;8.82;;;5.50;;
22922;SDS011;11627;51.322;22.816;2022-07-10T04:17:46;7.47;;;5.22;;
22922;SDS011;11627;51.322;22.816;2022-07-10T04:20:12;8.88;;;5.70;;
22922;SDS011;11627;51.322;22.816;2022-07-10T04:22:39;7.85;;;5.47;;
22922;SDS011;11627;51.322;22.816;2022-07-10T04:25:05;9.13;;;5.10;;
22922;SDS011;11627;51.322;22.816;2022-07-10T04:27:32;10.32;;;5.10;;
22922;SDS011;11627;51.322;22.816;2022-07-10T04:29:58;7.43;;;4.82;;
22922;SDS011;11627;51.322;22.816;2022-07-10T04:32:25;7.50;;;4.20;;
22922;SDS011;11627;51.322;22.816;2022-07-10T04:34:54;6.38;;;4.50;;
22922;SDS011;11627;51.322;22.816;2022-07-10T04:37:20;6.95;;;4.70;;
22922;SDS011;11627;51.322;22.816;2022-07-10T04:39:47;7.28;;;5.07;;
22922;SDS011;11627;51.322;22.816;2022-07-10T04:42:15;7.15;;;4.45;;
22922;SDS011;11627;51.322;22.816;2022-07-10T04:44:41;7.43;;;4.70;;
22922;SDS011;11627;51.322;22.816;2022-07-10T04:47:08;6.63;;;4.32;;
22922;SDS011;11627;51.322;22.816;2022-07-10T04:49:35;8.52;;;4.57;;
22922;SDS011;11627;51.322;22.816;2022-07-10T04:52:02;7.78;;;4.07;;
22922;SDS011;11627;51.322;22.816;2022-07-10T04:54:28;6.82;;;4.25;;
22922;SDS011;11627;51.322;22.816;2022-07-10T04:56:54;9.20;;;4.38;;
22922;SDS011;11627;51.322;22.816;2022-07-10T04:59:20;5.63;;;3.88;;
22922;SDS011;11627;51.322;22.816;2022-07-10T05:01:45;7.68;;;3.80;;
22922;SDS011;11627;51.322;22.816;2022-07-10T05:04:12;6.10;;;4.38;;
22922;SDS011;11627;51.322;22.816;2022-07-10T05:06:38;6.82;;;4.05;;
22922;SDS011;11627;51.322;22.816;2022-07-10T05:09:04;7.80;;;4.03;;
22922;SDS011;11627;51.322;22.816;2022-07-10T05:11:29;8.38;;;3.50;;
22922;SDS011;11627;51.322;22.816;2022-07-10T05:13:57;7.70;;;4.15;;
22922;SDS011;11627;51.322;22.816;2022-07-10T05:16:23;6.13;;;4.05;;
22922;SDS011;11627;51.322;22.816;2022-07-10T05:18:50;5.93;;;4.22;;
22922;SDS011;11627;51.322;22.816;2022-07-10T05:21:16;5.80;;;3.67;;
22922;SDS011;11627;51.322;22.816;2022-07-10T05:23:43;5.72;;;3.83;;
22922;SDS011;11627;51.322;22.816;2022-07-10T05:26:08;5.15;;;3.40;;
22922;SDS011;11627;51.322;22.816;2022-07-10T05:28:34;4.72;;;3.60;;
22922;SDS011;11627;51.322;22.816;2022-07-10T05:31:01;4.82;;;3.30;;
22922;SDS011;11627;51.322;22.816;2022-07-10T05:33:28;5.40;;;4.00;;
22922;SDS011;11627;51.322;22.816;2022-07-10T05:35:54;7.13;;;3.78;;
22922;SDS011;11627;51.322;22.816;2022-07-10T05:38:20;7.88;;;3.58;;
22922;SDS011;11627;51.322;22.816;2022-07-10T05:40:47;4.30;;;3.42;;
22922;SDS011;11627;51.322;22.816;2022-07-10T05:43:15;4.05;;;3.35;;
22922;SDS011;11627;51.322;22.816;2022-07-10T05:45:41;4.65;;;3.72;;
22922;SDS011;11627;51.322;22.816;2022-07-10T05:48:06;5.72;;;3.60;;
22922;SDS011;11627;51.322;22.816;2022-07-10T05:50:32;5.72;;;3.53;;
22922;SDS011;11627;51.322;22.816;2022-07-10T05:52:58;4.45;;;3.78;;
22922;SDS011;11627;51.322;22.816;2022-07-10T05:55:24;4.50;;;3.15;;
22922;SDS011;11627;51.322;22.816;2022-07-10T05:57:50;4.30;;;3.17;;
22922;SDS011;11627;51.322;22.816;2022-07-10T06:00:17;5.85;;;3.33;;
22922;SDS011;11627;51.322;22.816;2022-07-10T06:02:45;4.78;;;3.55;;
22922;SDS011;11627;51.322;22.816;2022-07-10T06:05:10;6.30;;;3.40;;
22922;SDS011;11627;51.322;22.816;2022-07-10T06:07:36;7.15;;;3.40;;
22922;SDS011;11627;51.322;22.816;2022-07-10T06:10:02;6.82;;;3.72;;
22922;SDS011;11627;51.322;22.816;2022-07-10T06:12:30;7.57;;;3.47;;
22922;SDS011;11627;51.322;22.816;2022-07-10T06:14:57;5.15;;;3.60;;
22922;SDS011;11627;51.322;22.816;2022-07-10T06:17:23;7.72;;;2.95;;
22922;SDS011;11627;51.322;22.816;2022-07-10T06:19:50;3.50;;;3.03;;
22922;SDS011;11627;51.322;22.816;2022-07-10T06:22:17;7.60;;;3.22;;
22922;SDS011;11627;51.322;22.816;2022-07-10T06:25:04;5.30;;;2.90;;
22922;SDS011;11627;51.322;22.816;2022-07-10T06:27:32;9.68;;;3.38;;
22922;SDS011;11627;51.322;22.816;2022-07-10T06:30:01;4.32;;;3.00;;
22922;SDS011;11627;51.322;22.816;2022-07-10T06:32:28;4.93;;;3.10;;
22922;SDS011;11627;51.322;22.816;2022-07-10T06:34:55;5.30;;;2.60;;
22922;SDS011;11627;51.322;22.816;2022-07-10T06:37:21;7.65;;;2.90;;
22922;SDS011;11627;51.322;22.816;2022-07-10T06:39:48;5.38;;;3.08;;
22922;SDS011;11627;51.322;22.816;2022-07-10T06:42:16;4.20;;;2.80;;
22922;SDS011;11627;51.322;22.816;2022-07-10T06:44:43;5.35;;;3.05;;
22922;SDS011;11627;51.322;22.816;2022-07-10T06:47:11;6.93;;;2.58;;
22922;SDS011;11627;51.322;22.816;2022-07-10T06:49:59;4.00;;;2.70;;
22922;SDS011;11627;51.322;22.816;2022-07-10T06:52:27;4.18;;;2.80;;
22922;SDS011;11627;51.322;22.816;2022-07-10T06:54:54;6.70;;;2.83;;
22922;SDS011;11627;51.322;22.816;2022-07-10T06:57:20;4.60;;;2.75;;
22922;SDS011;11627;51.322;22.816;2022-07-10T06:59:47;6.95;;;3.10;;
22922;SDS011;11627;51.322;22.816;2022-07-10T07:02:14;3.08;;;2.38;;
22922;SDS011;11627;51.322;22.816;2022-07-10T07:04:41;5.90;;;3.00;;
22922;SDS011;11627;51.322;22.816;2022-07-10T07:07:07;3.65;;;2.78;;
22922;SDS011;11627;51.322;22.816;2022-07-10T07:09:34;3.70;;;2.22;;
22922;SDS011;11627;51.322;22.816;2022-07-10T07:12:01;5.00;;;2.50;;
22922;SDS011;11627;51.322;22.816;2022-07-10T07:14:28;6.10;;;2.28;;
22922;SDS011;11627;51.322;22.816;2022-07-10T07:16:55;3.22;;;2.45;;
22922;SDS011;11627;51.322;22.816;2022-07-10T07:19:28;4.53;;;2.28;;
22922;SDS011;11627;51.322;22.816;2022-07-10T07:22:19;2.40;;;2.20;;
22922;SDS011;11627;51.322;22.816;2022-07-10T07:25:05;8.95;;;2.60;;
22922;SDS011;11627;51.322;22.816;2022-07-10T07:27:34;4.05;;;2.45;;
22922;SDS011;11627;51.322;22.816;2022-07-10T07:30:06;3.97;;;2.28;;
22922;SDS011;11627;51.322;22.816;2022-07-10T07:32:38;4.38;;;2.58;;
22922;SDS011;11627;51.322;22.816;2022-07-10T07:35:04;4.10;;;2.80;;
22922;SDS011;11627;51.322;22.816;2022-07-10T07:37:44;6.57;;;2.33;;
22922;SDS011;11627;51.322;22.816;2022-07-10T07:40:20;2.58;;;2.10;;
22922;SDS011;11627;51.322;22.816;2022-07-10T07:42:50;2.78;;;2.10;;
22922;SDS011;11627;51.322;22.816;2022-07-10T07:45:19;2.90;;;2.20;;
22922;SDS011;11627;51.322;22.816;2022-07-10T07:47:48;3.50;;;2.40;;
22922;SDS011;11627;51.322;22.816;2022-07-10T07:50:21;5.32;;;2.40;;
22922;SDS011;11627;51.322;22.816;2022-07-10T07:52:54;3.67;;;2.08;;
22922;SDS011;11627;51.322;22.816;2022-07-10T07:55:21;3.03;;;2.20;;
22922;SDS011;11627;51.322;22.816;2022-07-10T07:57:50;4.28;;;2.67;;
22922;SDS011;11627;51.322;22.816;2022-07-10T08:00:20;3.67;;;2.22;;
22922;SDS011;11627;51.322;22.816;2022-07-10T08:02:50;2.50;;;2.00;;
22922;SDS011;11627;51.322;22.816;2022-07-10T08:05:17;2.00;;;1.67;;
22922;SDS011;11627;51.322;22.816;2022-07-10T08:08:03;3.13;;;1.77;;
22922;SDS011;11627;51.322;22.816;2022-07-10T08:10:31;3.80;;;1.60;;
22922;SDS011;11627;51.322;22.816;2022-07-10T08:12:59;3.00;;;1.90;;
22922;SDS011;11627;51.322;22.816;2022-07-10T08:15:26;4.35;;;1.65;;
22922;SDS011;11627;51.322;22.816;2022-07-10T08:17:53;3.78;;;1.75;;
22922;SDS011;11627;51.322;22.816;2022-07-10T08:20:21;3.90;;;1.55;;
22922;SDS011;11627;51.322;22.816;2022-07-10T08:22:49;6.05;;;1.60;;
22922;SDS011;11627;51.322;22.816;2022-07-10T08:25:16;2.13;;;1.42;;
22922;SDS011;11627;51.322;22.816;2022-07-10T08:27:43;1.92;;;1.40;;
22922;SDS011;11627;51.322;22.816;2022-07-10T08:30:08;2.10;;;1.02;;
22922;SDS011;11627;51.322;22.816;2022-07-10T08:32:39;1.80;;;1.60;;
22922;SDS011;11627;51.322;22.816;2022-07-10T08:35:05;2.40;;;1.08;;
22922;SDS011;11627;51.322;22.816;2022-07-10T08:40:17;2.55;;;1.15;;
22922;SDS011;11627;51.322;22.816;2022-07-10T08:42:48;4.50;;;1.00;;
22922;SDS011;11627;51.322;22.816;2022-07-10T08:45:14;2.55;;;1.13;;
22922;SDS011;11627;51.322;22.816;2022-07-10T08:47:40;1.20;;;1.10;;
22922;SDS011;11627;51.322;22.816;2022-07-10T08:50:15;2.42;;;1.00;;
22922;SDS011;11627;51.322;22.816;2022-07-10T08:52:52;1.65;;;1.10;;
22922;SDS011;11627;51.322;22.816;2022-07-10T08:55:41;2.00;;;1.23;;
22922;SDS011;11627;51.322;22.816;2022-07-10T08:58:08;1.90;;;0.98;;
22922;SDS011;11627;51.322;22.816;2022-07-10T09:00:36;2.38;;;0.90;;
22922;SDS011;11627;51.322;22.816;2022-07-10T09:03:05;1.75;;;0.80;;
22922;SDS011;11627;51.322;22.816;2022-07-10T09:05:32;2.67;;;1.20;;
22922;SDS011;11627;51.322;22.816;2022-07-10T09:07:59;1.10;;;1.00;;
22922;SDS011;11627;51.322;22.816;2022-07-10T09:10:26;4.00;;;1.10;;
22922;SDS011;11627;51.322;22.816;2022-07-10T09:15:25;1.95;;;0.85;;
22922;SDS011;11627;51.322;22.816;2022-07-10T09:18:04;5.85;;;1.00;;
22922;SDS011;11627;51.322;22.816;2022-07-10T09:20:36;1.67;;;0.68;;
22922;SDS011;11627;51.322;22.816;2022-07-10T09:25:52;3.78;;;0.80;;
22922;SDS011;11627;51.322;22.816;2022-07-10T09:28:22;3.42;;;1.13;;
22922;SDS011;11627;51.322;22.816;2022-07-10T09:30:48;2.88;;;0.80;;
22922;SDS011;11627;51.322;22.816;2022-07-10T09:33:16;1.73;;;0.90;;
22922;SDS011;11627;51.322;22.816;2022-07-10T09:36:08;5.40;;;1.65;;
22922;SDS011;11627;51.322;22.816;2022-07-10T09:41:26;3.13;;;0.90;;
22922;SDS011;11627;51.322;22.816;2022-07-10T09:43:57;3.13;;;1.10;;
22922;SDS011;11627;51.322;22.816;2022-07-10T09:46:47;1.25;;;0.90;;
22922;SDS011;11627;51.322;22.816;2022-07-10T09:49:12;2.88;;;0.80;;
22922;SDS011;11627;51.322;22.816;2022-07-10T09:51:42;4.43;;;1.00;;
22922;SDS011;11627;51.322;22.816;2022-07-10T09:54:10;2.42;;;1.00;;
22922;SDS011;11627;51.322;22.816;2022-07-10T09:56:44;5.40;;;1.10;;
22922;SDS011;11627;51.322;22.816;2022-07-10T09:59:16;3.63;;;1.30;;
22922;SDS011;11627;51.322;22.816;2022-07-10T10:04:12;2.22;;;1.20;;
22922;SDS011;11627;51.322;22.816;2022-07-10T10:06:41;2.42;;;1.30;;
22922;SDS011;11627;51.322;22.816;2022-07-10T10:12:12;4.28;;;1.27;;
22922;SDS011;11627;51.322;22.816;2022-07-10T10:14:43;4.35;;;1.30;;
22922;SDS011;11627;51.322;22.816;2022-07-10T10:17:09;2.05;;;1.08;;
22922;SDS011;11627;51.322;22.816;2022-07-10T10:19:36;4.80;;;1.30;;
22922;SDS011;11627;51.322;22.816;2022-07-10T10:22:23;3.30;;;1.15;;
22922;SDS011;11627;51.322;22.816;2022-07-10T10:24:50;6.05;;;1.00;;
22922;SDS011;11627;51.322;22.816;2022-07-10T10:27:18;1.95;;;1.00;;
22922;SDS011;11627;51.322;22.816;2022-07-10T10:29:45;5.78;;;2.47;;
22922;SDS011;11627;51.322;22.816;2022-07-10T10:32:13;2.20;;;0.98;;
22922;SDS011;11627;51.322;22.816;2022-07-10T10:34:43;3.78;;;0.93;;
22922;SDS011;11627;51.322;22.816;2022-07-10T10:40:06;0.70;;;0.60;;
22922;SDS011;11627;51.322;22.816;2022-07-10T10:42:35;0.65;;;0.65;;
22922;SDS011;11627;51.322;22.816;2022-07-10T10:45:30;1.50;;;0.60;;
22922;SDS011;11627;51.322;22.816;2022-07-10T10:48:09;1.73;;;0.70;;
22922;SDS011;11627;51.322;22.816;2022-07-10T10:58:35;3.45;;;0.70;;
22922;SDS011;11627;51.322;22.816;2022-07-10T11:06:52;4.93;;;1.00;;
22922;SDS011;11627;51.322;22.816;2022-07-10T11:09:26;2.75;;;0.68;;
22922;SDS011;11627;51.322;22.816;2022-07-10T11:12:06;2.45;;;0.52;;
22922;SDS011;11627;51.322;22.816;2022-07-10T11:14:37;2.17;;;0.40;;
22922;SDS011;11627;51.322;22.816;2022-07-10T11:17:06;5.22;;;0.50;;
22922;SDS011;11627;51.322;22.816;2022-07-10T11:19:33;2.90;;;0.40;;
22922;SDS011;11627;51.322;22.816;2022-07-10T11:25:28;2.28;;;0.47;;
22922;SDS011;11627;51.322;22.816;2022-07-10T11:28:09;1.15;;;0.30;;
22922;SDS011;11627;51.322;22.816;2022-07-10T11:30:44;1.90;;;0.57;;
22922;SDS011;11627;51.322;22.816;2022-07-10T11:33:11;2.63;;;0.45;;
22922;SDS011;11627;51.322;22.816;2022-07-10T11:35:38;3.05;;;0.60;;
22922;SDS011;11627;51.322;22.816;2022-07-10T11:38:05;3.83;;;0.60;;
22922;SDS011;11627;51.322;22.816;2022-07-10T11:40:30;1.75;;;0.40;;
22922;SDS011;11627;51.322;22.816;2022-07-10T11:43:03;1.02;;;0.30;;
22922;SDS011;11627;51.322;22.816;2022-07-10T11:45:38;1.67;;;0.30;;
22922;SDS011;11627;51.322;22.816;2022-07-10T11:48:04;2.28;;;0.60;;
22922;SDS011;11627;51.322;22.816;2022-07-10T11:50:35;2.17;;;0.50;;
22922;SDS011;11627;51.322;22.816;2022-07-10T11:53:03;1.65;;;0.35;;
22922;SDS011;11627;51.322;22.816;2022-07-10T11:55:30;1.00;;;0.40;;
22922;SDS011;11627;51.322;22.816;2022-07-10T11:58:11;1.73;;;0.50;;
22922;SDS011;11627;51.322;22.816;2022-07-10T12:00:56;3.80;;;0.60;;
22922;SDS011;11627;51.322;22.816;2022-07-10T12:03:30;1.73;;;0.38;;
22922;SDS011;11627;51.322;22.816;2022-07-10T12:06:00;2.40;;;0.40;;
22922;SDS011;11627;51.322;22.816;2022-07-10T12:08:41;3.03;;;0.50;;
22922;SDS011;11627;51.322;22.816;2022-07-10T12:11:12;1.83;;;0.50;;
22922;SDS011;11627;51.322;22.816;2022-07-10T12:13:39;0.65;;;0.30;;
22922;SDS011;11627;51.322;22.816;2022-07-10T12:16:05;0.60;;;0.60;;
22922;SDS011;11627;51.322;22.816;2022-07-10T12:18:32;2.25;;;0.52;;
22922;SDS011;11627;51.322;22.816;2022-07-10T12:20:59;1.88;;;0.50;;
22922;SDS011;11627;51.322;22.816;2022-07-10T12:23:25;2.85;;;0.40;;
22922;SDS011;11627;51.322;22.816;2022-07-10T12:25:53;1.35;;;0.57;;
22922;SDS011;11627;51.322;22.816;2022-07-10T12:28:21;1.27;;;0.50;;
22922;SDS011;11627;51.322;22.816;2022-07-10T12:30:48;0.90;;;0.40;;
22922;SDS011;11627;51.322;22.816;2022-07-10T12:33:20;1.30;;;0.50;;
22922;SDS011;11627;51.322;22.816;2022-07-10T12:35:48;1.27;;;0.70;;
22922;SDS011;11627;51.322;22.816;2022-07-10T12:38:22;2.45;;;0.50;;
22922;SDS011;11627;51.322;22.816;2022-07-10T12:40:50;2.00;;;0.50;;
22922;SDS011;11627;51.322;22.816;2022-07-10T12:43:32;1.23;;;0.38;;
22922;SDS011;11627;51.322;22.816;2022-07-10T12:46:18;2.40;;;0.50;;
22922;SDS011;11627;51.322;22.816;2022-07-10T12:51:47;2.03;;;0.50;;
22922;SDS011;11627;51.322;22.816;2022-07-10T12:56:59;3.15;;;0.50;;
22922;SDS011;11627;51.322;22.816;2022-07-10T12:59:26;2.10;;;0.82;;
22922;SDS011;11627;51.322;22.816;2022-07-10T13:01:54;1.85;;;0.60;;
22922;SDS011;11627;51.322;22.816;2022-07-10T13:04:23;1.67;;;0.60;;
22922;SDS011;11627;51.322;22.816;2022-07-10T13:06:52;1.95;;;0.63;;
22922;SDS011;11627;51.322;22.816;2022-07-10T13:11:49;1.42;;;0.65;;
22922;SDS011;11627;51.322;22.816;2022-07-10T13:14:18;4.10;;;0.82;;
22922;SDS011;11627;51.322;22.816;2022-07-10T13:16:45;2.95;;;0.50;;
22922;SDS011;11627;51.322;22.816;2022-07-10T13:19:12;1.83;;;0.60;;
22922;SDS011;11627;51.322;22.816;2022-07-10T13:21:38;4.85;;;0.95;;
22922;SDS011;11627;51.322;22.816;2022-07-10T13:24:04;3.17;;;0.98;;
22922;SDS011;11627;51.322;22.816;2022-07-10T13:26:30;3.03;;;0.93;;
22922;SDS011;11627;51.322;22.816;2022-07-10T13:28:56;1.90;;;0.52;;
22922;SDS011;11627;51.322;22.816;2022-07-10T13:31:24;3.45;;;0.60;;
22922;SDS011;11627;51.322;22.816;2022-07-10T13:33:49;1.95;;;0.60;;
22922;SDS011;11627;51.322;22.816;2022-07-10T13:36:15;1.70;;;0.80;;
22922;SDS011;11627;51.322;22.816;2022-07-10T13:38:41;4.78;;;0.88;;
22922;SDS011;11627;51.322;22.816;2022-07-10T13:41:07;1.70;;;0.90;;
22922;SDS011;11627;51.322;22.816;2022-07-10T13:43:33;3.67;;;1.17;;
22922;SDS011;11627;51.322;22.816;2022-07-10T13:46:00;2.10;;;0.82;;
22922;SDS011;11627;51.322;22.816;2022-07-10T13:48:26;2.00;;;1.00;;
22922;SDS011;11627;51.322;22.816;2022-07-10T13:50:52;3.63;;;0.93;;
22922;SDS011;11627;51.322;22.816;2022-07-10T13:53:18;3.15;;;1.05;;
22922;SDS011;11627;51.322;22.816;2022-07-10T13:55:45;2.28;;;0.95;;
22922;SDS011;11627;51.322;22.816;2022-07-10T13:58:11;4.22;;;0.75;;
22922;SDS011;11627;51.322;22.816;2022-07-10T14:00:37;3.38;;;1.10;;
22922;SDS011;11627;51.322;22.816;2022-07-10T14:03:04;1.92;;;1.10;;
22922;SDS011;11627;51.322;22.816;2022-07-10T14:05:30;3.67;;;1.15;;
22922;SDS011;11627;51.322;22.816;2022-07-10T14:07:57;1.27;;;1.10;;
22922;SDS011;11627;51.322;22.816;2022-07-10T14:10:23;3.58;;;0.93;;
22922;SDS011;11627;51.322;22.816;2022-07-10T14:12:49;4.03;;;1.38;;
22922;SDS011;11627;51.322;22.816;2022-07-10T14:15:17;2.63;;;1.38;;
22922;SDS011;11627;51.322;22.816;2022-07-10T14:17:43;6.60;;;1.58;;
22922;SDS011;11627;51.322;22.816;2022-07-10T14:20:09;3.17;;;1.95;;
22922;SDS011;11627;51.322;22.816;2022-07-10T14:22:36;2.78;;;1.98;;
22922;SDS011;11627;51.322;22.816;2022-07-10T14:25:02;3.53;;;1.90;;
22922;SDS011;11627;51.322;22.816;2022-07-10T14:27:33;5.78;;;2.08;;
22922;SDS011;11627;51.322;22.816;2022-07-10T14:29:59;5.03;;;1.60;;
22922;SDS011;11627;51.322;22.816;2022-07-10T14:32:25;6.00;;;1.55;;
22922;SDS011;11627;51.322;22.816;2022-07-10T14:34:51;1.52;;;1.20;;
22922;SDS011;11627;51.322;22.816;2022-07-10T14:37:17;3.60;;;1.48;;
22922;SDS011;11627;51.322;22.816;2022-07-10T14:39:42;3.45;;;1.30;;
22922;SDS011;11627;51.322;22.816;2022-07-10T14:42:08;5.05;;;1.40;;
22922;SDS011;11627;51.322;22.816;2022-07-10T14:44:37;3.63;;;1.20;;
22922;SDS011;11627;51.322;22.816;2022-07-10T14:47:03;3.72;;;1.38;;
22922;SDS011;11627;51.322;22.816;2022-07-10T14:49:29;4.72;;;1.40;;
22922;SDS011;11627;51.322;22.816;2022-07-10T14:51:54;2.60;;;1.08;;
22922;SDS011;11627;51.322;22.816;2022-07-10T14:54:20;2.35;;;0.90;;
22922;SDS011;11627;51.322;22.816;2022-07-10T14:56:46;2.90;;;0.85;;
22922;SDS011;11627;51.322;22.816;2022-07-10T14:59:12;3.17;;;1.05;;
22922;SDS011;11627;51.322;22.816;2022-07-10T15:01:38;3.90;;;1.27;;
22922;SDS011;11627;51.322;22.816;2022-07-10T15:04:03;1.88;;;0.88;;
22922;SDS011;11627;51.322;22.816;2022-07-10T15:06:31;4.63;;;1.20;;
22922;SDS011;11627;51.322;22.816;2022-07-10T15:08:56;2.92;;;1.00;;
22922;SDS011;11627;51.322;22.816;2022-07-10T15:11:23;3.38;;;1.02;;
22922;SDS011;11627;51.322;22.816;2022-07-10T15:13:50;2.28;;;1.35;;
22922;SDS011;11627;51.322;22.816;2022-07-10T15:16:23;2.97;;;1.27;;
22922;SDS011;11627;51.322;22.816;2022-07-10T15:18:52;3.13;;;1.05;;
22922;SDS011;11627;51.322;22.816;2022-07-10T15:21:18;4.22;;;0.95;;
22922;SDS011;11627;51.322;22.816;2022-07-10T15:23:44;2.35;;;0.90;;
22922;SDS011;11627;51.322;22.816;2022-07-10T15:26:10;2.75;;;0.60;;